sensor_id;sensor_type;location;lat;lon;timestamp;P1;durP1;ratioP1;P2;durP2;ratioP2
73900;SDS011;62235;52.160;7.526;2023-04-30T00:01:33;8.20;;;4.30;;
73900;SDS011;62235;52.160;7.526;2023-04-30T00:03:58;6.73;;;4.37;;
73900;SDS011;62235;52.160;7.526;2023-04-30T00:06:24;10.80;;;4.80;;
73900;SDS011;62235;52.160;7.526;2023-04-30T00:08:49;8.93;;;4.97;;
73900;SDS011;62235;52.160;7.526;2023-04-30T00:11:14;6.20;;;4.13;;
73900;SDS011;62235;52.160;7.526;2023-04-30T00:13:40;8.20;;;4.63;;
73900;SDS011;62235;52.160;7.526;2023-04-30T00:16:06;6.47;;;4.18;;
73900;SDS011;62235;52.160;7.526;2023-04-30T00:18:32;7.40;;;4.43;;
73900;SDS011;62235;52.160;7.526;2023-04-30T00:20:57;6.97;;;4.43;;
73900;SDS011;62235;52.160;7.526;2023-04-30T00:23:22;8.27;;;4.30;;
73900;SDS011;62235;52.160;7.526;2023-04-30T00:25:48;6.50;;;4.20;;
73900;SDS011;62235;52.160;7.526;2023-04-30T00:28:13;10.23;;;4.97;;
73900;SDS011;62235;52.160;7.526;2023-04-30T00:30:38;8.13;;;4.72;;
73900;SDS011;62235;52.160;7.526;2023-04-30T00:33:04;7.95;;;4.35;;
73900;SDS011;62235;52.160;7.526;2023-04-30T00:35:29;6.80;;;4.03;;
73900;SDS011;62235;52.160;7.526;2023-04-30T00:37:54;8.33;;;4.40;;
73900;SDS011;62235;52.160;7.526;2023-04-30T00:40:20;7.10;;;4.20;;
73900;SDS011;62235;52.160;7.526;2023-04-30T00:42:45;6.88;;;3.97;;
73900;SDS011;62235;52.160;7.526;2023-04-30T00:45:12;9.95;;;4.05;;
73900;SDS011;62235;52.160;7.526;2023-04-30T00:47:38;6.70;;;3.88;;
73900;SDS011;62235;52.160;7.526;2023-04-30T00:50:03;6.47;;;3.60;;
73900;SDS011;62235;52.160;7.526;2023-04-30T00:52:30;7.90;;;4.10;;
73900;SDS011;62235;52.160;7.526;2023-04-30T00:54:55;6.47;;;3.75;;
73900;SDS011;62235;52.160;7.526;2023-04-30T00:57:21;6.53;;;3.83;;
73900;SDS011;62235;52.160;7.526;2023-04-30T00:59:47;6.00;;;4.03;;
73900;SDS011;62235;52.160;7.526;2023-04-30T01:02:12;7.75;;;4.50;;
73900;SDS011;62235;52.160;7.526;2023-04-30T01:04:38;7.50;;;3.80;;
73900;SDS011;62235;52.160;7.526;2023-04-30T01:07:03;8.88;;;4.50;;
73900;SDS011;62235;52.160;7.526;2023-04-30T01:09:29;6.50;;;3.75;;
73900;SDS011;62235;52.160;7.526;2023-04-30T01:11:57;6.35;;;3.88;;
73900;SDS011;62235;52.160;7.526;2023-04-30T01:14:28;7.75;;;3.90;;
73900;SDS011;62235;52.160;7.526;2023-04-30T01:19:58;12.07;;;4.22;;
73900;SDS011;62235;52.160;7.526;2023-04-30T01:22:29;7.45;;;4.20;;
73900;SDS011;62235;52.160;7.526;2023-04-30T01:25:34;6.70;;;3.88;;
73900;SDS011;62235;52.160;7.526;2023-04-30T01:28:05;5.82;;;3.75;;
73900;SDS011;62235;52.160;7.526;2023-04-30T01:30:33;7.10;;;3.72;;
73900;SDS011;62235;52.160;7.526;2023-04-30T01:32:59;7.03;;;3.83;;
73900;SDS011;62235;52.160;7.526;2023-04-30T01:35:33;7.80;;;3.90;;
73900;SDS011;62235;52.160;7.526;2023-04-30T01:41:18;9.60;;;4.28;;
73900;SDS011;62235;52.160;7.526;2023-04-30T01:44:05;8.00;;;3.97;;
73900;SDS011;62235;52.160;7.526;2023-04-30T01:46:40;8.18;;;3.70;;
73900;SDS011;62235;52.160;7.526;2023-04-30T01:52:01;6.18;;;4.03;;
73900;SDS011;62235;52.160;7.526;2023-04-30T01:54:44;8.18;;;4.22;;
73900;SDS011;62235;52.160;7.526;2023-04-30T01:57:12;7.78;;;4.18;;
73900;SDS011;62235;52.160;7.526;2023-04-30T01:59:41;7.35;;;4.25;;
73900;SDS011;62235;52.160;7.526;2023-04-30T02:02:07;7.78;;;4.32;;
73900;SDS011;62235;52.160;7.526;2023-04-30T02:04:33;8.68;;;4.60;;
73900;SDS011;62235;52.160;7.526;2023-04-30T02:06:58;7.90;;;3.90;;
73900;SDS011;62235;52.160;7.526;2023-04-30T02:09:23;9.55;;;4.30;;
73900;SDS011;62235;52.160;7.526;2023-04-30T02:11:49;8.38;;;4.30;;
73900;SDS011;62235;52.160;7.526;2023-04-30T02:14:15;9.68;;;4.38;;
73900;SDS011;62235;52.160;7.526;2023-04-30T02:16:40;7.82;;;4.32;;
73900;SDS011;62235;52.160;7.526;2023-04-30T02:19:05;9.33;;;4.50;;
73900;SDS011;62235;52.160;7.526;2023-04-30T02:21:31;10.17;;;5.20;;
73900;SDS011;62235;52.160;7.526;2023-04-30T02:23:56;7.47;;;4.35;;
73900;SDS011;62235;52.160;7.526;2023-04-30T02:26:21;7.70;;;4.13;;
73900;SDS011;62235;52.160;7.526;2023-04-30T02:28:47;8.13;;;4.47;;
73900;SDS011;62235;52.160;7.526;2023-04-30T02:31:12;9.35;;;5.22;;
73900;SDS011;62235;52.160;7.526;2023-04-30T02:33:37;8.20;;;4.87;;
73900;SDS011;62235;52.160;7.526;2023-04-30T02:36:03;6.90;;;4.03;;
73900;SDS011;62235;52.160;7.526;2023-04-30T02:38:28;11.25;;;4.90;;
73900;SDS011;62235;52.160;7.526;2023-04-30T02:40:54;6.73;;;4.33;;
73900;SDS011;62235;52.160;7.526;2023-04-30T02:43:19;7.68;;;4.22;;
73900;SDS011;62235;52.160;7.526;2023-04-30T02:45:45;8.93;;;4.00;;
73900;SDS011;62235;52.160;7.526;2023-04-30T02:48:10;6.50;;;3.70;;
73900;SDS011;62235;52.160;7.526;2023-04-30T02:50:35;7.57;;;4.23;;
73900;SDS011;62235;52.160;7.526;2023-04-30T02:53:01;7.23;;;4.10;;
73900;SDS011;62235;52.160;7.526;2023-04-30T02:55:26;8.07;;;4.22;;
73900;SDS011;62235;52.160;7.526;2023-04-30T02:57:52;7.75;;;4.10;;
73900;SDS011;62235;52.160;7.526;2023-04-30T03:00:17;8.20;;;4.10;;
73900;SDS011;62235;52.160;7.526;2023-04-30T03:02:43;8.52;;;4.53;;
73900;SDS011;62235;52.160;7.526;2023-04-30T03:05:08;9.97;;;4.73;;
73900;SDS011;62235;52.160;7.526;2023-04-30T03:07:34;8.07;;;4.18;;
73900;SDS011;62235;52.160;7.526;2023-04-30T03:10:00;9.30;;;4.47;;
73900;SDS011;62235;52.160;7.526;2023-04-30T03:12:25;11.00;;;4.77;;
73900;SDS011;62235;52.160;7.526;2023-04-30T03:14:50;8.37;;;3.80;;
73900;SDS011;62235;52.160;7.526;2023-04-30T03:17:16;6.93;;;3.85;;
73900;SDS011;62235;52.160;7.526;2023-04-30T03:19:41;9.57;;;4.60;;
73900;SDS011;62235;52.160;7.526;2023-04-30T03:22:07;8.82;;;4.07;;
73900;SDS011;62235;52.160;7.526;2023-04-30T03:24:32;6.80;;;3.95;;
73900;SDS011;62235;52.160;7.526;2023-04-30T03:26:57;7.00;;;3.90;;
73900;SDS011;62235;52.160;7.526;2023-04-30T03:29:23;7.80;;;4.40;;
73900;SDS011;62235;52.160;7.526;2023-04-30T03:31:48;10.15;;;4.30;;
73900;SDS011;62235;52.160;7.526;2023-04-30T03:34:13;7.57;;;3.97;;
73900;SDS011;62235;52.160;7.526;2023-04-30T03:36:39;7.00;;;4.20;;
73900;SDS011;62235;52.160;7.526;2023-04-30T03:39:05;8.43;;;4.53;;
73900;SDS011;62235;52.160;7.526;2023-04-30T03:41:30;8.63;;;3.95;;
73900;SDS011;62235;52.160;7.526;2023-04-30T03:43:56;5.88;;;3.67;;
73900;SDS011;62235;52.160;7.526;2023-04-30T03:46:21;8.60;;;4.27;;
73900;SDS011;62235;52.160;7.526;2023-04-30T03:48:46;7.68;;;4.25;;
73900;SDS011;62235;52.160;7.526;2023-04-30T03:51:12;8.00;;;4.07;;
73900;SDS011;62235;52.160;7.526;2023-04-30T03:53:37;8.53;;;3.90;;
73900;SDS011;62235;52.160;7.526;2023-04-30T03:56:02;9.20;;;4.53;;
73900;SDS011;62235;52.160;7.526;2023-04-30T03:58:29;8.18;;;4.25;;
73900;SDS011;62235;52.160;7.526;2023-04-30T04:00:54;9.40;;;4.20;;
73900;SDS011;62235;52.160;7.526;2023-04-30T04:03:19;11.60;;;4.65;;
73900;SDS011;62235;52.160;7.526;2023-04-30T04:05:45;7.05;;;4.22;;
73900;SDS011;62235;52.160;7.526;2023-04-30T04:08:10;14.75;;;4.95;;
73900;SDS011;62235;52.160;7.526;2023-04-30T04:10:36;11.98;;;4.97;;
73900;SDS011;62235;52.160;7.526;2023-04-30T04:13:02;10.18;;;4.47;;
73900;SDS011;62235;52.160;7.526;2023-04-30T04:15:28;8.10;;;4.27;;
73900;SDS011;62235;52.160;7.526;2023-04-30T04:17:53;6.93;;;4.32;;
73900;SDS011;62235;52.160;7.526;2023-04-30T04:20:18;8.38;;;4.90;;
73900;SDS011;62235;52.160;7.526;2023-04-30T04:22:44;7.23;;;4.43;;
73900;SDS011;62235;52.160;7.526;2023-04-30T04:25:09;7.00;;;4.53;;
73900;SDS011;62235;52.160;7.526;2023-04-30T04:27:34;7.80;;;4.60;;
73900;SDS011;62235;52.160;7.526;2023-04-30T04:30:03;8.65;;;4.40;;
73900;SDS011;62235;52.160;7.526;2023-04-30T04:32:28;8.55;;;4.60;;
73900;SDS011;62235;52.160;7.526;2023-04-30T04:34:54;9.50;;;4.72;;
73900;SDS011;62235;52.160;7.526;2023-04-30T04:37:20;8.93;;;4.90;;
73900;SDS011;62235;52.160;7.526;2023-04-30T04:39:46;7.30;;;4.18;;
73900;SDS011;62235;52.160;7.526;2023-04-30T04:42:12;8.65;;;4.40;;
73900;SDS011;62235;52.160;7.526;2023-04-30T04:44:39;7.63;;;4.38;;
73900;SDS011;62235;52.160;7.526;2023-04-30T04:47:05;8.05;;;4.55;;
73900;SDS011;62235;52.160;7.526;2023-04-30T04:49:30;7.30;;;4.57;;
73900;SDS011;62235;52.160;7.526;2023-04-30T04:51:56;7.63;;;3.90;;
73900;SDS011;62235;52.160;7.526;2023-04-30T04:54:21;7.57;;;4.00;;
73900;SDS011;62235;52.160;7.526;2023-04-30T04:56:46;8.43;;;4.10;;
73900;SDS011;62235;52.160;7.526;2023-04-30T04:59:12;10.00;;;3.83;;
73900;SDS011;62235;52.160;7.526;2023-04-30T05:01:37;8.53;;;4.20;;
73900;SDS011;62235;52.160;7.526;2023-04-30T05:04:03;8.70;;;4.00;;
73900;SDS011;62235;52.160;7.526;2023-04-30T05:06:28;8.45;;;4.40;;
73900;SDS011;62235;52.160;7.526;2023-04-30T05:08:53;7.60;;;4.37;;
73900;SDS011;62235;52.160;7.526;2023-04-30T05:11:19;9.25;;;4.10;;
73900;SDS011;62235;52.160;7.526;2023-04-30T05:13:45;12.68;;;4.05;;
73900;SDS011;62235;52.160;7.526;2023-04-30T05:16:11;8.82;;;4.22;;
73900;SDS011;62235;52.160;7.526;2023-04-30T05:18:36;7.97;;;4.25;;
73900;SDS011;62235;52.160;7.526;2023-04-30T05:21:02;7.27;;;4.17;;
73900;SDS011;62235;52.160;7.526;2023-04-30T05:23:28;10.57;;;4.30;;
73900;SDS011;62235;52.160;7.526;2023-04-30T05:25:53;10.43;;;3.83;;
73900;SDS011;62235;52.160;7.526;2023-04-30T05:28:19;8.43;;;4.38;;
73900;SDS011;62235;52.160;7.526;2023-04-30T05:30:44;11.77;;;5.78;;
73900;SDS011;62235;52.160;7.526;2023-04-30T05:33:10;12.55;;;5.63;;
73900;SDS011;62235;52.160;7.526;2023-04-30T05:35:35;7.77;;;4.77;;
73900;SDS011;62235;52.160;7.526;2023-04-30T05:38:01;11.53;;;5.53;;
73900;SDS011;62235;52.160;7.526;2023-04-30T05:40:27;11.10;;;4.80;;
73900;SDS011;62235;52.160;7.526;2023-04-30T05:42:52;15.13;;;5.80;;
73900;SDS011;62235;52.160;7.526;2023-04-30T05:45:18;9.57;;;5.13;;
73900;SDS011;62235;52.160;7.526;2023-04-30T05:47:43;10.25;;;5.20;;
73900;SDS011;62235;52.160;7.526;2023-04-30T05:50:09;10.05;;;4.80;;
73900;SDS011;62235;52.160;7.526;2023-04-30T05:52:34;10.40;;;4.97;;
73900;SDS011;62235;52.160;7.526;2023-04-30T05:54:59;10.00;;;5.27;;
73900;SDS011;62235;52.160;7.526;2023-04-30T05:57:25;11.70;;;5.10;;
73900;SDS011;62235;52.160;7.526;2023-04-30T05:59:50;8.80;;;4.47;;
73900;SDS011;62235;52.160;7.526;2023-04-30T06:02:15;11.37;;;4.60;;
73900;SDS011;62235;52.160;7.526;2023-04-30T06:04:41;10.02;;;4.35;;
73900;SDS011;62235;52.160;7.526;2023-04-30T06:07:06;10.93;;;4.63;;
73900;SDS011;62235;52.160;7.526;2023-04-30T06:09:32;11.60;;;4.97;;
73900;SDS011;62235;52.160;7.526;2023-04-30T06:11:57;10.35;;;5.07;;
73900;SDS011;62235;52.160;7.526;2023-04-30T06:14:23;14.10;;;5.22;;
73900;SDS011;62235;52.160;7.526;2023-04-30T06:16:48;10.80;;;4.15;;
73900;SDS011;62235;52.160;7.526;2023-04-30T06:19:14;9.63;;;2.80;;
73900;SDS011;62235;52.160;7.526;2023-04-30T06:21:40;9.05;;;3.60;;
73900;SDS011;62235;52.160;7.526;2023-04-30T06:24:07;8.85;;;3.60;;
73900;SDS011;62235;52.160;7.526;2023-04-30T06:26:33;9.32;;;3.83;;
73900;SDS011;62235;52.160;7.526;2023-04-30T06:28:58;10.38;;;4.35;;
73900;SDS011;62235;52.160;7.526;2023-04-30T06:31:23;7.03;;;3.20;;
73900;SDS011;62235;52.160;7.526;2023-04-30T06:33:49;8.77;;;3.45;;
73900;SDS011;62235;52.160;7.526;2023-04-30T06:36:14;9.55;;;3.65;;
73900;SDS011;62235;52.160;7.526;2023-04-30T06:38:40;8.32;;;3.25;;
73900;SDS011;62235;52.160;7.526;2023-04-30T06:41:06;12.27;;;3.72;;
73900;SDS011;62235;52.160;7.526;2023-04-30T06:43:32;10.15;;;3.50;;
73900;SDS011;62235;52.160;7.526;2023-04-30T06:45:57;4.73;;;3.10;;
73900;SDS011;62235;52.160;7.526;2023-04-30T06:48:22;9.40;;;3.50;;
73900;SDS011;62235;52.160;7.526;2023-04-30T06:50:48;6.60;;;3.00;;
73900;SDS011;62235;52.160;7.526;2023-04-30T06:53:14;9.93;;;3.00;;
73900;SDS011;62235;52.160;7.526;2023-04-30T06:55:39;6.18;;;2.97;;
73900;SDS011;62235;52.160;7.526;2023-04-30T06:58:05;4.50;;;1.83;;
73900;SDS011;62235;52.160;7.526;2023-04-30T07:00:31;7.68;;;2.65;;
73900;SDS011;62235;52.160;7.526;2023-04-30T07:02:56;7.88;;;3.45;;
73900;SDS011;62235;52.160;7.526;2023-04-30T07:05:24;3.20;;;1.20;;
73900;SDS011;62235;52.160;7.526;2023-04-30T07:07:50;7.75;;;2.78;;
73900;SDS011;62235;52.160;7.526;2023-04-30T07:10:15;10.30;;;2.70;;
73900;SDS011;62235;52.160;7.526;2023-04-30T07:12:41;8.93;;;3.03;;
73900;SDS011;62235;52.160;7.526;2023-04-30T07:15:06;8.52;;;3.00;;
73900;SDS011;62235;52.160;7.526;2023-04-30T07:17:32;6.85;;;2.17;;
73900;SDS011;62235;52.160;7.526;2023-04-30T07:19:57;4.20;;;2.35;;
73900;SDS011;62235;52.160;7.526;2023-04-30T07:22:22;4.13;;;1.92;;
73900;SDS011;62235;52.160;7.526;2023-04-30T07:24:48;11.33;;;2.50;;
73900;SDS011;62235;52.160;7.526;2023-04-30T07:27:13;6.93;;;2.40;;
73900;SDS011;62235;52.160;7.526;2023-04-30T07:29:39;7.75;;;2.47;;
73900;SDS011;62235;52.160;7.526;2023-04-30T07:32:04;9.32;;;2.45;;
73900;SDS011;62235;52.160;7.526;2023-04-30T07:34:29;6.13;;;2.78;;
73900;SDS011;62235;52.160;7.526;2023-04-30T07:36:55;6.65;;;2.42;;
73900;SDS011;62235;52.160;7.526;2023-04-30T07:39:20;7.68;;;1.88;;
73900;SDS011;62235;52.160;7.526;2023-04-30T07:41:46;5.33;;;1.93;;
73900;SDS011;62235;52.160;7.526;2023-04-30T07:44:11;9.40;;;2.13;;
73900;SDS011;62235;52.160;7.526;2023-04-30T07:46:36;5.00;;;2.05;;
73900;SDS011;62235;52.160;7.526;2023-04-30T07:49:02;1.53;;;0.80;;
73900;SDS011;62235;52.160;7.526;2023-04-30T07:51:28;8.98;;;2.20;;
73900;SDS011;62235;52.160;7.526;2023-04-30T07:53:53;7.88;;;2.30;;
73900;SDS011;62235;52.160;7.526;2023-04-30T07:56:19;8.90;;;2.72;;
73900;SDS011;62235;52.160;7.526;2023-04-30T07:58:45;4.35;;;1.75;;
73900;SDS011;62235;52.160;7.526;2023-04-30T08:01:10;7.72;;;2.67;;
73900;SDS011;62235;52.160;7.526;2023-04-30T08:03:36;7.10;;;2.00;;
73900;SDS011;62235;52.160;7.526;2023-04-30T08:06:01;4.70;;;1.73;;
73900;SDS011;62235;52.160;7.526;2023-04-30T08:08:27;1.33;;;0.95;;
73900;SDS011;62235;52.160;7.526;2023-04-30T08:10:52;3.92;;;1.50;;
73900;SDS011;62235;52.160;7.526;2023-04-30T08:13:17;6.95;;;2.33;;
73900;SDS011;62235;52.160;7.526;2023-04-30T08:15:44;8.38;;;2.10;;
73900;SDS011;62235;52.160;7.526;2023-04-30T08:18:10;3.67;;;1.73;;
73900;SDS011;62235;52.160;7.526;2023-04-30T08:20:35;11.18;;;2.45;;
73900;SDS011;62235;52.160;7.526;2023-04-30T08:23:00;8.90;;;1.40;;
73900;SDS011;62235;52.160;7.526;2023-04-30T08:25:26;5.65;;;1.80;;
73900;SDS011;62235;52.160;7.526;2023-04-30T08:27:51;8.33;;;2.30;;
73900;SDS011;62235;52.160;7.526;2023-04-30T08:30:16;6.70;;;2.53;;
73900;SDS011;62235;52.160;7.526;2023-04-30T08:32:42;6.30;;;2.15;;
73900;SDS011;62235;52.160;7.526;2023-04-30T08:35:07;3.25;;;1.70;;
73900;SDS011;62235;52.160;7.526;2023-04-30T08:37:33;7.25;;;2.28;;
73900;SDS011;62235;52.160;7.526;2023-04-30T08:39:59;5.57;;;1.92;;
73900;SDS011;62235;52.160;7.526;2023-04-30T08:42:30;7.30;;;2.30;;
73900;SDS011;62235;52.160;7.526;2023-04-30T08:44:56;6.40;;;2.40;;
73900;SDS011;62235;52.160;7.526;2023-04-30T08:47:23;6.10;;;1.90;;
73900;SDS011;62235;52.160;7.526;2023-04-30T08:49:48;5.00;;;2.03;;
73900;SDS011;62235;52.160;7.526;2023-04-30T08:52:14;5.25;;;2.15;;
73900;SDS011;62235;52.160;7.526;2023-04-30T08:54:39;5.55;;;1.77;;
73900;SDS011;62235;52.160;7.526;2023-04-30T08:57:05;4.93;;;2.10;;
73900;SDS011;62235;52.160;7.526;2023-04-30T08:59:30;4.53;;;2.25;;
73900;SDS011;62235;52.160;7.526;2023-04-30T09:01:56;7.22;;;2.90;;
73900;SDS011;62235;52.160;7.526;2023-04-30T09:04:21;9.20;;;2.63;;
73900;SDS011;62235;52.160;7.526;2023-04-30T09:06:46;6.93;;;2.20;;
73900;SDS011;62235;52.160;7.526;2023-04-30T09:09:12;5.28;;;2.30;;
73900;SDS011;62235;52.160;7.526;2023-04-30T09:11:39;4.80;;;2.03;;
73900;SDS011;62235;52.160;7.526;2023-04-30T09:14:05;2.50;;;1.35;;
73900;SDS011;62235;52.160;7.526;2023-04-30T09:16:47;5.47;;;2.58;;
73900;SDS011;62235;52.160;7.526;2023-04-30T09:19:26;4.32;;;1.75;;
73900;SDS011;62235;52.160;7.526;2023-04-30T09:21:53;4.97;;;1.73;;
73900;SDS011;62235;52.160;7.526;2023-04-30T09:24:19;6.68;;;2.38;;
73900;SDS011;62235;52.160;7.526;2023-04-30T09:26:44;5.55;;;2.22;;
73900;SDS011;62235;52.160;7.526;2023-04-30T09:29:13;5.57;;;1.98;;
73900;SDS011;62235;52.160;7.526;2023-04-30T09:31:40;4.82;;;2.13;;
73900;SDS011;62235;52.160;7.526;2023-04-30T09:34:09;9.57;;;2.30;;
73900;SDS011;62235;52.160;7.526;2023-04-30T09:36:34;6.03;;;1.90;;
73900;SDS011;62235;52.160;7.526;2023-04-30T09:41:32;6.15;;;2.22;;
73900;SDS011;62235;52.160;7.526;2023-04-30T09:43:58;6.40;;;2.70;;
73900;SDS011;62235;52.160;7.526;2023-04-30T09:46:31;6.65;;;1.92;;
73900;SDS011;62235;52.160;7.526;2023-04-30T09:48:58;4.68;;;2.30;;
73900;SDS011;62235;52.160;7.526;2023-04-30T09:51:23;4.07;;;1.83;;
73900;SDS011;62235;52.160;7.526;2023-04-30T09:53:50;8.20;;;2.42;;
73900;SDS011;62235;52.160;7.526;2023-04-30T09:56:16;6.80;;;2.22;;
73900;SDS011;62235;52.160;7.526;2023-04-30T09:58:44;4.38;;;1.90;;
73900;SDS011;62235;52.160;7.526;2023-04-30T10:01:14;6.20;;;1.98;;
73900;SDS011;62235;52.160;7.526;2023-04-30T10:03:41;5.07;;;2.20;;
73900;SDS011;62235;52.160;7.526;2023-04-30T10:06:06;3.53;;;1.60;;
73900;SDS011;62235;52.160;7.526;2023-04-30T10:08:33;4.93;;;1.80;;
73900;SDS011;62235;52.160;7.526;2023-04-30T10:11:03;5.97;;;1.80;;
73900;SDS011;62235;52.160;7.526;2023-04-30T10:13:30;2.67;;;1.00;;
73900;SDS011;62235;52.160;7.526;2023-04-30T10:16:00;3.47;;;1.45;;
73900;SDS011;62235;52.160;7.526;2023-04-30T10:18:32;6.38;;;1.83;;
73900;SDS011;62235;52.160;7.526;2023-04-30T10:21:01;4.63;;;1.70;;
73900;SDS011;62235;52.160;7.526;2023-04-30T10:23:28;3.90;;;1.52;;
73900;SDS011;62235;52.160;7.526;2023-04-30T10:25:54;5.13;;;1.70;;
73900;SDS011;62235;52.160;7.526;2023-04-30T10:28:20;3.03;;;1.40;;
73900;SDS011;62235;52.160;7.526;2023-04-30T10:30:47;3.58;;;1.70;;
73900;SDS011;62235;52.160;7.526;2023-04-30T10:36:05;4.72;;;1.52;;
73900;SDS011;62235;52.160;7.526;2023-04-30T10:38:33;4.13;;;1.63;;
73900;SDS011;62235;52.160;7.526;2023-04-30T10:40:59;4.47;;;1.92;;
73900;SDS011;62235;52.160;7.526;2023-04-30T10:43:26;3.00;;;1.73;;
73900;SDS011;62235;52.160;7.526;2023-04-30T10:45:53;2.15;;;1.20;;
73900;SDS011;62235;52.160;7.526;2023-04-30T10:48:21;4.50;;;1.25;;
73900;SDS011;62235;52.160;7.526;2023-04-30T10:50:51;3.05;;;0.98;;
73900;SDS011;62235;52.160;7.526;2023-04-30T10:53:20;3.92;;;1.50;;
73900;SDS011;62235;52.160;7.526;2023-04-30T10:56:00;5.22;;;1.48;;
73900;SDS011;62235;52.160;7.526;2023-04-30T10:58:34;1.88;;;0.77;;
73900;SDS011;62235;52.160;7.526;2023-04-30T11:03:36;3.15;;;1.30;;
73900;SDS011;62235;52.160;7.526;2023-04-30T11:08:35;3.45;;;1.35;;
73900;SDS011;62235;52.160;7.526;2023-04-30T11:11:01;4.35;;;1.90;;
73900;SDS011;62235;52.160;7.526;2023-04-30T11:13:34;3.15;;;1.40;;
73900;SDS011;62235;52.160;7.526;2023-04-30T11:16:03;3.72;;;1.65;;
73900;SDS011;62235;52.160;7.526;2023-04-30T11:18:29;4.20;;;1.40;;
73900;SDS011;62235;52.160;7.526;2023-04-30T11:20:56;4.95;;;1.75;;
73900;SDS011;62235;52.160;7.526;2023-04-30T11:23:21;4.05;;;1.77;;
73900;SDS011;62235;52.160;7.526;2023-04-30T11:25:48;5.72;;;1.80;;
73900;SDS011;62235;52.160;7.526;2023-04-30T11:30:41;5.20;;;1.60;;
73900;SDS011;62235;52.160;7.526;2023-04-30T11:35:40;2.03;;;1.10;;
73900;SDS011;62235;52.160;7.526;2023-04-30T11:38:05;4.22;;;1.50;;
73900;SDS011;62235;52.160;7.526;2023-04-30T11:40:33;4.60;;;1.30;;
73900;SDS011;62235;52.160;7.526;2023-04-30T11:42:59;5.47;;;1.52;;
73900;SDS011;62235;52.160;7.526;2023-04-30T11:45:24;2.90;;;1.30;;
73900;SDS011;62235;52.160;7.526;2023-04-30T11:47:52;3.92;;;1.70;;
73900;SDS011;62235;52.160;7.526;2023-04-30T11:50:32;5.30;;;1.67;;
73900;SDS011;62235;52.160;7.526;2023-04-30T11:52:58;2.13;;;0.98;;
73900;SDS011;62235;52.160;7.526;2023-04-30T11:55:25;2.15;;;0.98;;
73900;SDS011;62235;52.160;7.526;2023-04-30T11:57:52;2.92;;;1.30;;
73900;SDS011;62235;52.160;7.526;2023-04-30T12:00:27;5.25;;;1.58;;
73900;SDS011;62235;52.160;7.526;2023-04-30T12:02:54;3.92;;;1.30;;
73900;SDS011;62235;52.160;7.526;2023-04-30T12:05:21;2.50;;;1.10;;
73900;SDS011;62235;52.160;7.526;2023-04-30T12:07:48;3.88;;;1.40;;
73900;SDS011;62235;52.160;7.526;2023-04-30T12:10:21;3.95;;;1.40;;
73900;SDS011;62235;52.160;7.526;2023-04-30T12:12:49;4.60;;;1.35;;
73900;SDS011;62235;52.160;7.526;2023-04-30T12:15:18;4.80;;;1.23;;
73900;SDS011;62235;52.160;7.526;2023-04-30T12:17:50;4.68;;;1.48;;
73900;SDS011;62235;52.160;7.526;2023-04-30T12:20:15;5.22;;;1.30;;
73900;SDS011;62235;52.160;7.526;2023-04-30T12:22:41;3.83;;;1.52;;
73900;SDS011;62235;52.160;7.526;2023-04-30T12:25:10;3.38;;;1.48;;
73900;SDS011;62235;52.160;7.526;2023-04-30T12:27:38;2.33;;;1.00;;
73900;SDS011;62235;52.160;7.526;2023-04-30T12:30:06;4.22;;;1.30;;
73900;SDS011;62235;52.160;7.526;2023-04-30T12:32:52;3.78;;;1.58;;
73900;SDS011;62235;52.160;7.526;2023-04-30T12:35:22;4.78;;;1.40;;
73900;SDS011;62235;52.160;7.526;2023-04-30T12:37:49;3.30;;;1.40;;
73900;SDS011;62235;52.160;7.526;2023-04-30T12:40:19;2.72;;;0.90;;
73900;SDS011;62235;52.160;7.526;2023-04-30T12:42:45;3.88;;;1.30;;
73900;SDS011;62235;52.160;7.526;2023-04-30T12:45:12;3.65;;;1.00;;
73900;SDS011;62235;52.160;7.526;2023-04-30T12:47:38;3.95;;;1.40;;
73900;SDS011;62235;52.160;7.526;2023-04-30T12:50:08;4.38;;;1.55;;
73900;SDS011;62235;52.160;7.526;2023-04-30T12:52:35;3.50;;;0.90;;
73900;SDS011;62235;52.160;7.526;2023-04-30T12:55:13;3.38;;;0.85;;
73900;SDS011;62235;52.160;7.526;2023-04-30T12:57:39;3.63;;;0.90;;
73900;SDS011;62235;52.160;7.526;2023-04-30T13:00:05;1.52;;;0.90;;
73900;SDS011;62235;52.160;7.526;2023-04-30T13:02:32;1.75;;;0.70;;
73900;SDS011;62235;52.160;7.526;2023-04-30T13:04:57;3.10;;;1.17;;
73900;SDS011;62235;52.160;7.526;2023-04-30T13:07:23;1.95;;;1.00;;
73900;SDS011;62235;52.160;7.526;2023-04-30T13:09:49;3.42;;;1.20;;
73900;SDS011;62235;52.160;7.526;2023-04-30T13:12:14;2.63;;;1.00;;
73900;SDS011;62235;52.160;7.526;2023-04-30T13:14:39;4.70;;;1.20;;
73900;SDS011;62235;52.160;7.526;2023-04-30T13:17:05;4.55;;;1.40;;
73900;SDS011;62235;52.160;7.526;2023-04-30T13:19:31;3.50;;;1.30;;
73900;SDS011;62235;52.160;7.526;2023-04-30T13:21:56;3.78;;;1.23;;
73900;SDS011;62235;52.160;7.526;2023-04-30T13:24:23;1.98;;;1.10;;
73900;SDS011;62235;52.160;7.526;2023-04-30T13:26:48;3.45;;;1.27;;
73900;SDS011;62235;52.160;7.526;2023-04-30T13:29:14;2.88;;;0.98;;
73900;SDS011;62235;52.160;7.526;2023-04-30T13:31:39;2.80;;;1.00;;
73900;SDS011;62235;52.160;7.526;2023-04-30T13:34:06;3.40;;;1.20;;
73900;SDS011;62235;52.160;7.526;2023-04-30T13:36:32;2.28;;;0.80;;
73900;SDS011;62235;52.160;7.526;2023-04-30T13:38:57;3.25;;;1.20;;
73900;SDS011;62235;52.160;7.526;2023-04-30T13:41:23;4.30;;;1.40;;
73900;SDS011;62235;52.160;7.526;2023-04-30T13:43:50;3.05;;;1.60;;
73900;SDS011;62235;52.160;7.526;2023-04-30T13:46:15;2.95;;;1.27;;
73900;SDS011;62235;52.160;7.526;2023-04-30T13:48:40;2.28;;;1.10;;
73900;SDS011;62235;52.160;7.526;2023-04-30T13:51:06;2.67;;;1.17;;
73900;SDS011;62235;52.160;7.526;2023-04-30T13:53:32;3.28;;;1.20;;
73900;SDS011;62235;52.160;7.526;2023-04-30T13:55:57;3.00;;;1.67;;
73900;SDS011;62235;52.160;7.526;2023-04-30T13:58:23;4.22;;;1.65;;
73900;SDS011;62235;52.160;7.526;2023-04-30T14:00:49;3.22;;;1.30;;
73900;SDS011;62235;52.160;7.526;2023-04-30T14:03:15;2.60;;;1.25;;
73900;SDS011;62235;52.160;7.526;2023-04-30T14:05:41;4.22;;;1.00;;
73900;SDS011;62235;52.160;7.526;2023-04-30T14:08:06;2.00;;;1.10;;
73900;SDS011;62235;52.160;7.526;2023-04-30T14:10:31;3.33;;;1.07;;
73900;SDS011;62235;52.160;7.526;2023-04-30T14:12:57;2.67;;;1.10;;
73900;SDS011;62235;52.160;7.526;2023-04-30T14:15:22;2.55;;;1.20;;
73900;SDS011;62235;52.160;7.526;2023-04-30T14:17:48;3.70;;;1.00;;
73900;SDS011;62235;52.160;7.526;2023-04-30T14:20:14;3.72;;;1.20;;
73900;SDS011;62235;52.160;7.526;2023-04-30T14:22:40;4.50;;;1.40;;
73900;SDS011;62235;52.160;7.526;2023-04-30T14:25:05;2.50;;;1.20;;
73900;SDS011;62235;52.160;7.526;2023-04-30T14:27:31;4.22;;;1.13;;
73900;SDS011;62235;52.160;7.526;2023-04-30T14:29:56;1.77;;;0.90;;
73900;SDS011;62235;52.160;7.526;2023-04-30T14:32:25;2.53;;;1.07;;
73900;SDS011;62235;52.160;7.526;2023-04-30T14:34:51;3.95;;;1.10;;
73900;SDS011;62235;52.160;7.526;2023-04-30T14:37:16;2.75;;;1.10;;
73900;SDS011;62235;52.160;7.526;2023-04-30T14:39:42;1.95;;;0.85;;
73900;SDS011;62235;52.160;7.526;2023-04-30T14:42:07;3.35;;;0.90;;
73900;SDS011;62235;52.160;7.526;2023-04-30T14:44:33;3.17;;;0.77;;
73900;SDS011;62235;52.160;7.526;2023-04-30T14:46:59;2.10;;;1.08;;
73900;SDS011;62235;52.160;7.526;2023-04-30T14:49:25;1.75;;;0.90;;
73900;SDS011;62235;52.160;7.526;2023-04-30T14:51:50;6.63;;;1.20;;
73900;SDS011;62235;52.160;7.526;2023-04-30T14:54:16;5.13;;;1.17;;
73900;SDS011;62235;52.160;7.526;2023-04-30T14:56:41;2.58;;;1.05;;
73900;SDS011;62235;52.160;7.526;2023-04-30T14:59:08;2.33;;;0.93;;
73900;SDS011;62235;52.160;7.526;2023-04-30T15:01:33;3.33;;;1.20;;
73900;SDS011;62235;52.160;7.526;2023-04-30T15:03:59;2.37;;;0.70;;
73900;SDS011;62235;52.160;7.526;2023-04-30T15:06:24;1.13;;;0.55;;